createdAt,value
2018-07-17T00:01:08.933Z,96656.28
2018-07-17T00:03:36.035Z,96654.49
2018-07-17T00:06:03.192Z,96653.07
2018-07-17T00:08:30.317Z,96651.65
2018-07-17T00:10:57.520Z,96648.72
2018-07-17T00:13:24.677Z,96653.30
2018-07-17T00:15:51.857Z,96645.16
2018-07-17T00:18:19.000Z,96645.28
2018-07-17T00:20:46.368Z,96642.98
2018-07-17T00:23:13.573Z,96648.52
2018-07-17T00:25:40.739Z,96652.60
2018-07-17T00:28:07.900Z,96649.58
2018-07-17T00:30:35.064Z,96653.89
2018-07-17T00:33:02.207Z,96653.38
2018-07-17T00:35:29.312Z,96641.18
2018-07-17T00:37:56.418Z,96643.67
2018-07-17T00:40:23.565Z,96644.22
2018-07-17T00:42:50.672Z,96639.23
2018-07-17T00:45:17.820Z,96640.97
2018-07-17T00:47:45.103Z,96652.11
2018-07-17T00:50:12.228Z,96644.94
2018-07-17T00:52:39.396Z,96653.91
2018-07-17T00:55:06.619Z,96651.77
2018-07-17T00:57:33.756Z,96650.73
2018-07-17T01:00:00.927Z,96655.56
2018-07-17T01:02:33.672Z,96648.56
2018-07-17T01:05:06.684Z,96646.87
2018-07-17T01:07:46.291Z,96644.56
2018-07-17T01:10:18.948Z,96648.53
2018-07-17T01:12:45.563Z,96654.23
2018-07-17T01:15:22.951Z,96643.14
2018-07-17T01:17:50.125Z,96642.31
2018-07-17T01:20:17.275Z,96648.23
2018-07-17T01:22:44.420Z,96640.36
2018-07-17T01:25:11.647Z,96631.14
2018-07-17T01:27:38.828Z,96632.69
2018-07-17T01:30:05.996Z,96635.52
2018-07-17T01:32:33.124Z,96633.33
2018-07-17T01:35:00.326Z,96631.68
2018-07-17T01:37:27.552Z,96629.30
2018-07-17T01:39:54.710Z,96633.23
2018-07-17T01:42:21.880Z,96628.15
2018-07-17T01:44:49.007Z,96633.98
2018-07-17T01:47:16.141Z,96636.77
2018-07-17T01:49:43.280Z,96639.75
2018-07-17T01:52:10.451Z,96641.11
2018-07-17T01:54:37.586Z,96643.03
2018-07-17T01:57:04.700Z,96640.44
2018-07-17T01:59:31.848Z,96645.92
2018-07-17T02:01:58.993Z,96640.31
2018-07-17T02:04:26.115Z,96640.58
2018-07-17T02:06:53.253Z,96641.33
2018-07-17T02:09:20.379Z,96644.50
2018-07-17T02:11:47.521Z,96637.48
2018-07-17T02:14:14.688Z,96640.81
2018-07-17T02:16:41.833Z,96639.50
2018-07-17T02:19:08.969Z,96630.32
2018-07-17T02:21:36.132Z,96632.60
2018-07-17T02:24:03.265Z,96631.52
2018-07-17T02:26:30.384Z,96629.94
2018-07-17T02:28:57.508Z,96628.70
2018-07-17T02:31:24.759Z,96632.73
2018-07-17T02:33:51.879Z,96626.83
2018-07-17T02:36:19.044Z,96629.20
2018-07-17T02:38:46.195Z,96631.14
2018-07-17T02:41:13.339Z,96628.85
2018-07-17T02:43:40.451Z,96633.41
2018-07-17T02:46:07.586Z,96639.95
2018-07-17T02:48:34.740Z,96649.48
2018-07-17T02:51:01.880Z,96649.27
2018-07-17T02:53:28.971Z,96646.82
2018-07-17T02:55:56.102Z,96644.58
2018-07-17T02:58:23.256Z,96645.20
2018-07-17T03:00:50.480Z,96648.95
2018-07-17T03:03:17.605Z,96651.34
2018-07-17T03:05:44.712Z,96651.14
2018-07-17T03:08:11.849Z,96652.48
2018-07-17T03:10:38.956Z,96655.52
2018-07-17T03:13:06.116Z,96658.42
2018-07-17T03:15:33.197Z,96661.37
2018-07-17T03:18:00.342Z,96658.19
2018-07-17T03:20:27.452Z,96657.03
2018-07-17T03:22:54.628Z,96659.22
2018-07-17T03:25:21.770Z,96658.84
2018-07-17T03:27:48.882Z,96655.25
2018-07-17T03:30:16.012Z,96663.77
2018-07-17T03:32:43.147Z,96664.66
2018-07-17T03:35:10.261Z,96664.22
2018-07-17T03:37:37.448Z,96665.78
2018-07-17T03:40:04.905Z,96671.86
2018-07-17T03:42:32.047Z,96669.25
2018-07-17T03:44:59.187Z,96671.45
2018-07-17T03:47:26.357Z,96669.52
2018-07-17T03:49:53.516Z,96673.76
2018-07-17T03:52:20.754Z,96676.14
2018-07-17T03:54:47.937Z,96687.20
2018-07-17T03:57:15.117Z,96686.30
2018-07-17T03:59:42.326Z,96688.52
2018-07-17T04:02:09.460Z,96692.68
2018-07-17T04:04:36.616Z,96696.58
2018-07-17T04:07:03.777Z,96694.39
2018-07-17T04:09:30.933Z,96692.89
2018-07-17T04:11:58.115Z,96694.33
2018-07-17T04:14:25.359Z,96691.17
2018-07-17T04:16:54.295Z,96695.72
2018-07-17T04:19:22.451Z,96699.67
2018-07-17T04:21:50.315Z,96702.92
2018-07-17T04:24:17.672Z,96701.67
2018-07-17T04:26:44.926Z,96705.81
2018-07-17T04:29:12.119Z,96707.19
2018-07-17T04:31:39.217Z,96703.08
2018-07-17T04:34:06.368Z,96706.98
2018-07-17T04:36:33.513Z,96714.03
2018-07-17T04:39:00.689Z,96713.52
2018-07-17T04:41:27.812Z,96717.63
2018-07-17T04:43:54.937Z,96727.20
2018-07-17T04:46:22.209Z,96719.66
2018-07-17T04:48:49.429Z,96718.68
2018-07-17T04:51:16.635Z,96720.78
2018-07-17T04:53:43.831Z,96719.05
2018-07-17T04:56:11.181Z,96718.97
2018-07-17T04:58:38.352Z,96714.72
2018-07-17T05:01:05.909Z,96719.19
2018-07-17T05:03:33.019Z,96724.08
2018-07-17T05:06:00.140Z,96727.25
2018-07-17T05:08:27.260Z,96725.46
2018-07-17T05:10:54.480Z,96728.34
2018-07-17T05:13:21.664Z,96730.42
2018-07-17T05:15:48.792Z,96724.30
2018-07-17T05:18:15.912Z,96720.95
2018-07-17T05:20:43.028Z,96726.10
2018-07-17T05:23:10.129Z,96724.48
2018-07-17T05:25:37.241Z,96724.56
2018-07-17T05:28:04.356Z,96724.30
2018-07-17T05:30:31.513Z,96728.06
2018-07-17T05:32:58.672Z,96728.49
2018-07-17T05:35:25.810Z,96732.41
2018-07-17T05:37:53.035Z,96726.52
2018-07-17T05:40:20.223Z,96733.13
2018-07-17T05:42:47.368Z,96730.17
2018-07-17T05:45:14.512Z,96730.63
2018-07-17T05:47:41.623Z,96727.41
2018-07-17T05:50:10.157Z,96727.95
2018-07-17T05:52:37.516Z,96725.97
2018-07-17T05:55:04.821Z,96725.31
2018-07-17T05:57:31.898Z,96725.00
2018-07-17T05:59:59.088Z,96724.22
2018-07-17T06:02:26.208Z,96722.22
2018-07-17T06:04:53.335Z,96724.50
2018-07-17T06:07:20.453Z,96720.83
2018-07-17T06:09:47.670Z,96719.12
2018-07-17T06:12:14.921Z,96712.91
2018-07-17T06:14:42.133Z,96711.52
2018-07-17T06:17:09.761Z,96717.56
2018-07-17T06:19:36.915Z,96715.62
2018-07-17T06:22:04.088Z,96721.02
2018-07-17T06:24:31.208Z,96722.75
2018-07-17T06:26:58.331Z,96718.91
2018-07-17T06:29:25.612Z,96714.42
2018-07-17T06:31:52.764Z,96714.84
2018-07-17T06:34:26.851Z,96718.28
2018-07-17T06:36:54.020Z,96717.06
2018-07-17T06:39:21.192Z,96719.00
2018-07-17T06:41:48.324Z,96720.83
2018-07-17T06:44:15.492Z,96718.19
2018-07-17T06:46:42.651Z,96722.23
2018-07-17T06:49:09.744Z,96714.53
2018-07-17T06:51:36.922Z,96722.05
2018-07-17T06:54:04.085Z,96719.53
2018-07-17T06:56:31.245Z,96719.91
2018-07-17T06:58:58.427Z,96714.53
2018-07-17T07:01:25.588Z,96712.80
2018-07-17T07:03:52.739Z,96717.22
2018-07-17T07:06:19.946Z,96710.57
2018-07-17T07:08:47.076Z,96712.14
2018-07-17T07:11:14.321Z,96709.61
2018-07-17T07:13:41.436Z,96706.52
2018-07-17T07:16:08.604Z,96693.47
2018-07-17T07:18:35.699Z,96705.09
2018-07-17T07:21:02.887Z,96697.80
2018-07-17T07:23:30.019Z,96689.92
2018-07-17T07:25:57.162Z,96693.52
2018-07-17T07:28:24.296Z,96691.11
2018-07-17T07:30:51.744Z,96693.36
2018-07-17T07:33:18.957Z,96693.63
2018-07-17T07:35:46.173Z,96693.52
2018-07-17T07:38:13.319Z,96690.73
2018-07-17T07:40:40.490Z,96694.92
2018-07-17T07:43:07.607Z,96694.53
2018-07-17T07:45:34.787Z,96694.66
2018-07-17T07:48:01.972Z,96690.12
2018-07-17T07:50:29.111Z,96694.05
2018-07-17T07:52:56.248Z,96696.89
2018-07-17T07:55:23.389Z,96704.09
2018-07-17T07:57:50.592Z,96697.01
2018-07-17T08:00:17.807Z,96703.22
2018-07-17T08:02:44.998Z,96705.52
2018-07-17T08:05:12.201Z,96706.78
2018-07-17T08:07:39.388Z,96699.77
2018-07-17T08:10:06.912Z,96707.91
2018-07-17T08:12:34.069Z,96707.91
2018-07-17T08:15:01.284Z,96714.56
2018-07-17T08:17:28.752Z,96711.09
2018-07-17T08:19:55.899Z,96717.71
2018-07-17T08:22:22.969Z,96715.59
2018-07-17T08:24:50.094Z,96712.22
2018-07-17T08:27:17.241Z,96709.78
2018-07-17T08:29:44.385Z,96707.85
2018-07-17T08:32:11.532Z,96705.95
2018-07-17T08:34:38.664Z,96709.95
2018-07-17T08:37:05.912Z,96711.06
2018-07-17T08:39:33.128Z,96716.81
2018-07-17T08:42:00.256Z,96716.92
2018-07-17T08:44:27.356Z,96711.58
2018-07-17T08:46:54.519Z,96711.59
2018-07-17T08:49:21.676Z,96708.77
2018-07-17T08:51:48.874Z,96708.80
2018-07-17T08:54:16.082Z,96708.61
2018-07-17T08:56:43.257Z,96719.47
2018-07-17T08:59:10.411Z,96715.06
2018-07-17T09:01:37.551Z,96715.34
2018-07-17T09:04:04.731Z,96716.70
2018-07-17T09:06:31.959Z,96718.73
2018-07-17T09:08:59.104Z,96718.94
2018-07-17T09:11:26.317Z,96714.25
2018-07-17T09:13:53.425Z,96721.77
2018-07-17T09:16:20.584Z,96727.04
2018-07-17T09:18:47.747Z,96724.02
2018-07-17T09:21:14.943Z,96721.89
2018-07-17T09:23:42.943Z,96719.43
2018-07-17T09:26:10.143Z,96715.71
2018-07-17T09:28:37.304Z,96720.28
2018-07-17T09:31:04.451Z,96718.25
2018-07-17T09:33:31.941Z,96719.05
2018-07-17T09:35:59.755Z,96714.39
2018-07-17T09:38:26.873Z,96720.20
2018-07-17T09:40:54.239Z,96714.80
2018-07-17T09:43:21.388Z,96716.87
2018-07-17T09:45:49.096Z,96712.14
2018-07-17T09:48:16.252Z,96711.64
2018-07-17T09:50:43.403Z,96713.63
2018-07-17T09:53:10.505Z,96718.94
2018-07-17T09:55:37.714Z,96708.56
2018-07-17T09:58:04.956Z,96717.87
2018-07-17T10:00:38.688Z,96712.64
2018-07-17T10:03:05.899Z,96719.27
2018-07-17T10:05:33.004Z,96710.16
2018-07-17T10:08:00.156Z,96704.56
2018-07-17T10:10:27.348Z,96707.23
2018-07-17T10:12:54.480Z,96704.12
2018-07-17T10:15:21.675Z,96714.80
2018-07-17T10:17:48.879Z,96706.55
2018-07-17T10:20:16.031Z,96712.17
2018-07-17T10:22:43.140Z,96708.61
2018-07-17T10:25:10.311Z,96708.69
2018-07-17T10:27:38.040Z,96713.85
2018-07-17T10:30:05.274Z,96708.18
2018-07-17T10:32:32.508Z,96709.89
2018-07-17T10:35:00.269Z,96708.50
2018-07-17T10:37:27.444Z,96704.59
2018-07-17T10:39:54.608Z,96703.20
2018-07-17T10:42:21.740Z,96700.30
2018-07-17T10:44:48.881Z,96704.77
2018-07-17T10:47:16.136Z,96699.30
2018-07-17T10:49:43.248Z,96705.03
2018-07-17T10:52:10.420Z,96700.06
2018-07-17T10:54:37.532Z,96695.52
2018-07-17T10:57:04.664Z,96688.91
2018-07-17T10:59:31.739Z,96690.31
2018-07-17T11:01:58.929Z,96688.85
2018-07-17T11:04:26.083Z,96688.57
2018-07-17T11:06:53.252Z,96692.06
2018-07-17T11:09:20.404Z,96696.62
2018-07-17T11:11:47.812Z,96687.20
2018-07-17T11:14:14.991Z,96685.66
2018-07-17T11:16:42.152Z,96690.35
2018-07-17T11:19:09.277Z,96689.68
2018-07-17T11:21:36.402Z,96691.61
2018-07-17T11:24:03.562Z,96684.22
2018-07-17T11:26:30.727Z,96679.61
2018-07-17T11:28:57.837Z,96679.00
2018-07-17T11:31:24.976Z,96677.50
2018-07-17T11:33:52.136Z,96669.45
2018-07-17T11:36:19.305Z,96656.82
2018-07-17T11:38:46.515Z,96648.92
2018-07-17T11:41:13.637Z,96649.22
2018-07-17T11:43:40.751Z,96650.41
2018-07-17T11:46:07.916Z,96643.45
2018-07-17T11:48:35.061Z,96641.67
2018-07-17T11:51:02.311Z,96637.23
2018-07-17T11:53:29.436Z,96637.47
2018-07-17T11:55:56.597Z,96638.22
2018-07-17T11:58:23.688Z,96629.21
2018-07-17T12:00:50.855Z,96631.69
2018-07-17T12:03:18.007Z,96635.61
2018-07-17T12:05:45.275Z,96626.69
2018-07-17T12:08:12.457Z,96627.84
2018-07-17T12:10:39.588Z,96630.96
2018-07-17T12:13:06.903Z,96635.02
2018-07-17T12:15:35.243Z,96631.98
2018-07-17T12:18:02.512Z,96624.91
2018-07-17T12:20:29.794Z,96619.44
2018-07-17T12:22:56.887Z,96619.52
2018-07-17T12:25:24.276Z,96611.34
2018-07-17T12:27:54.082Z,96613.77
2018-07-17T12:30:25.008Z,96609.61
2018-07-17T12:32:52.206Z,96612.40
2018-07-17T12:35:19.381Z,96614.69
2018-07-17T12:37:46.569Z,96605.48
2018-07-17T12:40:14.570Z,96605.05
2018-07-17T12:42:41.768Z,96599.07
2018-07-17T12:45:08.923Z,96597.22
2018-07-17T12:47:36.105Z,96595.06
2018-07-17T12:50:04.479Z,96594.81
2018-07-17T12:52:31.536Z,96592.38
2018-07-17T12:54:58.786Z,96586.95
2018-07-17T12:57:26.015Z,96581.45
2018-07-17T12:59:53.227Z,96587.72
2018-07-17T13:02:20.495Z,96590.81
2018-07-17T13:04:47.961Z,96581.38
2018-07-17T13:07:15.281Z,96587.44
2018-07-17T13:09:42.456Z,96588.05
2018-07-17T13:12:09.807Z,96594.14
2018-07-17T13:14:37.037Z,96579.78
2018-07-17T13:17:04.249Z,96581.34
2018-07-17T13:19:31.391Z,96588.84
2018-07-17T13:22:02.081Z,96588.74
2018-07-17T13:24:32.203Z,96593.44
2018-07-17T13:27:02.128Z,96603.09
2018-07-17T13:29:30.568Z,96610.52
2018-07-17T13:32:02.847Z,96609.09
2018-07-17T13:34:31.515Z,96610.63
2018-07-17T13:37:00.588Z,96614.73
2018-07-17T13:39:32.074Z,96622.45
2018-07-17T13:42:04.055Z,96611.05
2018-07-17T13:44:33.865Z,96612.66
2018-07-17T13:47:05.125Z,96622.88
2018-07-17T13:49:34.545Z,96621.67
2018-07-17T13:52:02.910Z,96623.91
2018-07-17T13:54:30.839Z,96642.28
2018-07-17T13:56:58.117Z,96653.06
2018-07-17T13:59:25.252Z,96655.75
2018-07-17T14:01:52.391Z,96656.27
2018-07-17T14:04:19.649Z,96654.91
2018-07-17T14:06:46.894Z,96661.52
2018-07-17T14:09:14.190Z,96649.23
2018-07-17T14:11:41.400Z,96650.41
2018-07-17T14:14:08.599Z,96666.72
2018-07-17T14:16:35.825Z,96656.94
2018-07-17T14:19:03.046Z,96658.99
2018-07-17T14:21:30.234Z,96629.47
2018-07-17T14:23:57.423Z,96632.94
2018-07-17T14:26:24.627Z,96631.75
2018-07-17T14:28:51.827Z,96634.17
2018-07-17T14:31:18.997Z,96639.21
2018-07-17T14:33:46.104Z,96639.94
2018-07-17T14:36:13.349Z,96641.73
2018-07-17T14:38:40.492Z,96642.86
2018-07-17T14:41:07.757Z,96646.94
2018-07-17T14:43:34.900Z,96635.60
2018-07-17T14:46:02.061Z,96633.50
2018-07-17T14:48:29.347Z,96639.34
2018-07-17T14:50:56.538Z,96639.48
2018-07-17T14:53:23.769Z,96634.98
2018-07-17T14:55:50.973Z,96631.68
2018-07-17T14:58:18.181Z,96636.38
2018-07-17T15:00:45.420Z,96633.55
2018-07-17T15:03:12.680Z,96632.03
2018-07-17T15:05:39.844Z,96639.30
2018-07-17T15:08:06.947Z,96631.33
2018-07-17T15:10:34.174Z,96632.16
2018-07-17T15:13:01.407Z,96625.40
2018-07-17T15:15:28.667Z,96622.89
2018-07-17T15:17:55.908Z,96616.28
2018-07-17T15:20:23.109Z,96621.18
2018-07-17T15:22:50.281Z,96623.55
2018-07-17T15:25:17.477Z,96634.72
2018-07-17T15:27:44.749Z,96638.48
2018-07-17T15:30:11.912Z,96632.42
2018-07-17T15:32:39.125Z,96637.36
2018-07-17T15:35:06.309Z,96657.84
2018-07-17T15:37:33.549Z,96660.30
2018-07-17T15:40:00.778Z,96649.11
2018-07-17T15:42:27.945Z,96639.33
2018-07-17T15:44:55.171Z,96642.70
2018-07-17T15:47:22.373Z,96633.98
2018-07-17T15:49:49.592Z,96622.90
2018-07-17T15:52:16.724Z,96627.30
2018-07-17T15:54:43.926Z,96616.08
2018-07-17T15:57:11.108Z,96624.53
2018-07-17T15:59:47.075Z,96612.64
2018-07-17T16:02:14.204Z,96603.58
2018-07-17T16:04:41.339Z,96608.87
2018-07-17T16:07:08.520Z,96611.72
2018-07-17T16:09:35.714Z,96614.95
2018-07-17T16:12:02.868Z,96611.03
2018-07-17T16:14:30.272Z,96605.94
2018-07-17T16:16:57.191Z,96609.54
2018-07-17T16:19:24.299Z,96608.42
2018-07-17T16:21:51.507Z,96600.98
2018-07-17T16:24:18.712Z,96596.63
2018-07-17T16:26:45.972Z,96593.17
2018-07-17T16:29:13.124Z,96592.20
2018-07-17T16:31:40.189Z,96587.05
2018-07-17T16:34:07.358Z,96583.33
2018-07-17T16:36:34.503Z,96584.19
2018-07-17T16:39:01.665Z,96577.98
2018-07-17T16:41:28.794Z,96578.52
2018-07-17T16:43:55.924Z,96576.78
2018-07-17T16:46:23.068Z,96574.38
2018-07-17T16:48:50.182Z,96578.72
2018-07-17T16:51:17.330Z,96573.29
2018-07-17T16:53:44.467Z,96571.14
2018-07-17T16:56:11.620Z,96568.54
2018-07-17T16:58:38.781Z,96565.19
2018-07-17T17:01:05.968Z,96563.57
2018-07-17T17:03:33.080Z,96567.97
2018-07-17T17:06:00.236Z,96568.03
2018-07-17T17:08:27.401Z,96558.48
2018-07-17T17:10:54.545Z,96555.81
2018-07-17T17:13:21.844Z,96560.05
2018-07-17T17:15:49.047Z,96561.12
2018-07-17T17:18:16.189Z,96553.63
2018-07-17T17:20:43.351Z,96548.17
2018-07-17T17:23:10.492Z,96548.05
2018-07-17T17:25:37.641Z,96550.29
2018-07-17T17:28:04.842Z,96555.66
2018-07-17T17:30:31.976Z,96550.97
2018-07-17T17:32:59.112Z,96552.23
2018-07-17T17:35:26.273Z,96553.97
2018-07-17T17:37:53.376Z,96558.12
2018-07-17T17:40:20.468Z,96555.23
2018-07-17T17:42:47.623Z,96555.59
2018-07-17T17:45:14.799Z,96554.79
2018-07-17T17:47:42.031Z,96555.28
2018-07-17T17:50:09.205Z,96555.44
2018-07-17T17:52:36.340Z,96563.46
2018-07-17T17:55:04.217Z,96559.70
2018-07-17T17:57:31.409Z,96559.35
2018-07-17T17:59:58.555Z,96561.53
2018-07-17T18:02:25.684Z,96567.45
2018-07-17T18:04:52.821Z,96568.70
2018-07-17T18:07:19.941Z,96568.95
2018-07-17T18:09:47.131Z,96572.69
2018-07-17T18:12:14.307Z,96573.34
2018-07-17T18:14:41.454Z,96574.43
2018-07-17T18:17:08.893Z,96574.41
2018-07-17T18:19:36.238Z,96579.36
2018-07-17T18:22:03.363Z,96577.03
2018-07-17T18:24:30.518Z,96572.13
2018-07-17T18:26:57.712Z,96578.07
2018-07-17T18:29:24.847Z,96576.72
2018-07-17T18:31:52.012Z,96575.70
2018-07-17T18:34:19.202Z,96585.73
2018-07-17T18:36:46.433Z,96585.08
2018-07-17T18:39:13.557Z,96589.96
2018-07-17T18:41:40.836Z,96592.29
2018-07-17T18:44:07.917Z,96602.88
2018-07-17T18:46:35.103Z,96602.79
2018-07-17T18:49:02.256Z,96602.25
2018-07-17T18:51:29.570Z,96619.81
2018-07-17T18:53:56.788Z,96617.59
2018-07-17T18:56:23.922Z,96612.69
2018-07-17T18:58:51.183Z,96618.77
2018-07-17T19:01:18.499Z,96619.63
2018-07-17T19:03:45.716Z,96625.14
2018-07-17T19:06:12.893Z,96631.87
2018-07-17T19:08:40.085Z,96634.09
2018-07-17T19:11:07.350Z,96634.69
2018-07-17T19:13:34.624Z,96633.34
2018-07-17T19:16:01.862Z,96633.50
2018-07-17T19:18:29.085Z,96639.63
2018-07-17T19:20:56.381Z,96639.08
2018-07-17T19:23:23.900Z,96629.03
2018-07-17T19:25:51.176Z,96644.41
2018-07-17T19:28:18.320Z,96645.64
2018-07-17T19:30:45.519Z,96650.45
2018-07-17T19:33:12.682Z,96650.49
2018-07-17T19:36:43.301Z,96654.83
2018-07-17T19:39:11.489Z,96657.47
2018-07-17T19:41:38.773Z,96668.48
2018-07-17T19:44:06.093Z,96667.38
2018-07-17T19:46:33.283Z,96668.91
2018-07-17T19:49:00.416Z,96676.25
2018-07-17T19:51:27.652Z,96673.34
2018-07-17T19:53:54.782Z,96675.69
2018-07-17T19:56:21.961Z,96676.67
2018-07-17T19:58:49.140Z,96678.97
2018-07-17T20:01:16.326Z,96678.01
2018-07-17T20:03:43.591Z,96681.95
2018-07-17T20:06:10.755Z,96679.31
2018-07-17T20:08:37.942Z,96679.15
2018-07-17T20:11:05.154Z,96682.80
2018-07-17T20:13:32.336Z,96676.49
2018-07-17T20:15:59.505Z,96678.41
2018-07-17T20:18:26.676Z,96675.33
2018-07-17T20:20:53.960Z,96679.97
2018-07-17T20:23:21.208Z,96675.18
2018-07-17T20:25:48.440Z,96673.60
2018-07-17T20:28:15.670Z,96677.09
2018-07-17T20:30:42.825Z,96679.41
2018-07-17T20:33:09.974Z,96678.25
2018-07-17T20:35:37.199Z,96681.13
2018-07-17T20:38:04.436Z,96684.38
2018-07-17T20:40:31.865Z,96684.20
2018-07-17T20:42:59.008Z,96687.27
2018-07-17T20:45:26.188Z,96683.63
2018-07-17T20:47:53.321Z,96685.16
2018-07-17T20:50:20.584Z,96690.91
2018-07-17T20:52:47.843Z,96691.67
2018-07-17T20:55:15.052Z,96693.22
2018-07-17T20:57:42.196Z,96692.06
2018-07-17T21:00:09.365Z,96696.86
2018-07-17T21:02:36.710Z,96695.33
2018-07-17T21:05:05.096Z,96694.95
2018-07-17T21:07:32.325Z,96694.17
2018-07-17T21:09:59.508Z,96699.55
2018-07-17T21:12:26.672Z,96696.67
2018-07-17T21:14:54.030Z,96698.19
2018-07-17T21:17:21.164Z,96697.03
2018-07-17T21:19:48.353Z,96698.38
2018-07-17T21:22:15.845Z,96707.98
2018-07-17T21:24:43.004Z,96711.75
2018-07-17T21:27:10.136Z,96714.22
2018-07-17T21:29:37.269Z,96717.09
2018-07-17T21:32:04.422Z,96717.09
2018-07-17T21:34:31.528Z,96723.61
2018-07-17T21:36:58.695Z,96725.34
2018-07-17T21:39:25.801Z,96721.47
2018-07-17T21:41:52.949Z,96721.22
2018-07-17T21:44:20.104Z,96717.72
2018-07-17T21:46:47.267Z,96716.55
2018-07-17T21:49:14.396Z,96721.41
2018-07-17T21:54:15.468Z,96727.36
2018-07-17T21:56:42.645Z,96727.78
2018-07-17T21:59:09.740Z,96725.70
2018-07-17T22:04:10.764Z,96736.02
2018-07-17T22:06:37.877Z,96734.22
2018-07-17T22:09:07.684Z,96735.40
2018-07-17T22:11:34.803Z,96735.58
2018-07-17T22:14:01.973Z,96740.44
2018-07-17T22:16:29.169Z,96737.20
2018-07-17T22:18:56.264Z,96745.11
2018-07-17T22:21:24.162Z,96742.00
2018-07-17T22:23:51.305Z,96748.72
2018-07-17T22:26:18.642Z,96746.66
2018-07-17T22:28:45.773Z,96746.84
2018-07-17T22:31:12.920Z,96747.99
2018-07-17T22:33:40.037Z,96747.89
2018-07-17T22:36:07.185Z,96747.84
2018-07-17T22:38:34.328Z,96750.70
2018-07-17T22:41:01.479Z,96752.03
2018-07-17T22:43:28.627Z,96754.87
2018-07-17T22:45:55.808Z,96752.76
2018-07-17T22:48:22.924Z,96755.27
2018-07-17T22:50:50.038Z,96750.20
2018-07-17T22:53:17.180Z,96753.48
2018-07-17T22:55:44.323Z,96751.91
2018-07-17T22:58:11.460Z,96754.20
2018-07-17T23:00:38.649Z,96753.80
2018-07-17T23:03:05.827Z,96756.33
2018-07-17T23:05:32.925Z,96755.50
2018-07-17T23:08:00.062Z,96756.45
2018-07-17T23:10:27.224Z,96758.06
2018-07-17T23:12:54.355Z,96765.08
2018-07-17T23:15:21.494Z,96768.48
2018-07-17T23:17:48.684Z,96760.72
2018-07-17T23:20:15.814Z,96762.63
2018-07-17T23:22:51.315Z,96763.88
2018-07-17T23:25:18.863Z,96764.90
2018-07-17T23:27:46.445Z,96769.27
2018-07-17T23:30:13.879Z,96769.94
2018-07-17T23:32:41.158Z,96773.92
2018-07-17T23:35:08.415Z,96772.84
2018-07-17T23:37:35.708Z,96774.88
2018-07-17T23:40:03.070Z,96773.33
2018-07-17T23:42:30.350Z,96775.66
2018-07-17T23:44:57.603Z,96766.41
2018-07-17T23:47:24.875Z,96768.20
2018-07-17T23:49:52.143Z,96764.27
2018-07-17T23:52:19.412Z,96772.45
2018-07-17T23:54:46.651Z,96774.95
2018-07-17T23:57:13.902Z,96770.58
2018-07-17T23:59:41.166Z,96773.15
